createdAt,value
2022-09-20T00:01:24.474Z,97793.53
2022-09-20T00:03:54.855Z,97787.19
2022-09-20T00:06:25.912Z,97795.59
2022-09-20T00:08:54.306Z,97795.31
2022-09-20T00:11:24.690Z,97799.63
2022-09-20T00:13:56.099Z,97798.31
2022-09-20T00:16:28.374Z,97804.97
2022-09-20T00:18:58.292Z,97809.16
2022-09-20T00:21:29.045Z,97805.19
2022-09-20T00:23:58.315Z,97808.69
2022-09-20T00:26:27.193Z,97813.25
2022-09-20T00:29:19.177Z,97818.00
2022-09-20T00:31:48.403Z,97813.91
2022-09-20T00:34:34.096Z,97811.66
2022-09-20T00:37:02.189Z,97808.72
2022-09-20T00:39:31.482Z,97815.50
2022-09-20T00:41:59.129Z,97813.34
2022-09-20T00:44:48.761Z,97815.72
2022-09-20T00:47:28.111Z,97811.88
2022-09-20T00:50:03.948Z,97813.50
2022-09-20T00:52:32.565Z,97806.69
2022-09-20T00:55:01.875Z,97813.63
2022-09-20T00:57:35.211Z,97800.38
2022-09-20T01:00:08.115Z,97808.50
2022-09-20T01:02:40.885Z,97806.94
2022-09-20T01:05:11.120Z,97808.44
2022-09-20T01:07:40.050Z,97804.59
2022-09-20T01:10:08.216Z,97806.06
2022-09-20T01:12:40.289Z,97810.81
2022-09-20T01:15:10.434Z,97809.22
2022-09-20T01:17:43.875Z,97800.09
2022-09-20T01:20:19.604Z,97805.13
2022-09-20T01:23:20.089Z,97798.84
2022-09-20T01:26:12.493Z,97805.50
2022-09-20T01:28:44.648Z,97807.75
2022-09-20T01:31:18.426Z,97813.78
2022-09-20T01:33:53.011Z,97805.88
2022-09-20T01:36:26.364Z,97802.00
2022-09-20T01:39:06.801Z,97798.75
2022-09-20T01:41:38.665Z,97803.81
2022-09-20T01:44:13.828Z,97802.47
2022-09-20T01:46:44.436Z,97795.19
2022-09-20T01:49:24.816Z,97792.28
2022-09-20T01:52:34.385Z,97795.66
2022-09-20T01:55:38.173Z,97800.88
2022-09-20T01:58:35.740Z,97806.84
2022-09-20T02:01:31.274Z,97808.75
2022-09-20T02:04:31.943Z,97809.88
2022-09-20T02:07:23.948Z,97817.13
2022-09-20T02:10:12.720Z,97809.19
2022-09-20T02:12:54.096Z,97810.56
2022-09-20T02:15:46.576Z,97824.59
2022-09-20T02:18:21.994Z,97822.22
2022-09-20T02:20:57.820Z,97827.53
2022-09-20T02:23:41.519Z,97831.38
2022-09-20T02:26:24.023Z,97831.19
2022-09-20T02:29:03.313Z,97824.09
2022-09-20T02:31:50.678Z,97832.94
2022-09-20T02:34:44.260Z,97837.25
2022-09-20T02:37:32.113Z,97837.84
2022-09-20T02:40:19.920Z,97832.16
2022-09-20T02:42:56.152Z,97835.22
2022-09-20T02:45:31.101Z,97836.13
2022-09-20T02:48:04.156Z,97842.47
2022-09-20T02:50:42.734Z,97837.72
2022-09-20T02:53:26.606Z,97845.63
2022-09-20T02:56:04.304Z,97844.03
2022-09-20T02:58:42.104Z,97853.56
2022-09-20T03:01:21.218Z,97852.16
2022-09-20T03:04:00.750Z,97846.63
2022-09-20T03:06:38.257Z,97844.91
2022-09-20T03:09:17.335Z,97850.41
2022-09-20T03:12:01.956Z,97840.19
2022-09-20T03:14:37.548Z,97850.84
2022-09-20T03:17:16.981Z,97851.53
2022-09-20T03:19:56.940Z,97849.94
2022-09-20T03:22:38.352Z,97850.19
2022-09-20T03:25:28.867Z,97845.97
2022-09-20T03:28:10.894Z,97849.47
2022-09-20T03:30:54.273Z,97860.00
2022-09-20T03:33:32.769Z,97856.34
2022-09-20T03:36:12.946Z,97850.84
2022-09-20T03:39:01.034Z,97848.59
2022-09-20T03:41:58.312Z,97853.13
2022-09-20T03:44:42.411Z,97850.06
2022-09-20T03:47:21.364Z,97857.03
2022-09-20T03:50:18.794Z,97853.91
2022-09-20T03:53:06.153Z,97858.84
2022-09-20T03:56:11.248Z,97859.31
2022-09-20T03:58:58.272Z,97867.13
2022-09-20T04:01:50.201Z,97873.16
2022-09-20T04:04:26.641Z,97867.13
2022-09-20T04:07:11.800Z,97865.53
2022-09-20T04:09:54.104Z,97874.28
2022-09-20T04:12:31.684Z,97878.69
2022-09-20T04:15:11.188Z,97882.97
2022-09-20T04:17:48.621Z,97878.41
2022-09-20T04:20:21.149Z,97884.53
2022-09-20T04:22:52.265Z,97888.84
2022-09-20T04:25:24.624Z,97885.34
2022-09-20T04:27:58.173Z,97894.16
2022-09-20T04:30:29.508Z,97893.84
2022-09-20T04:33:01.408Z,97899.41
2022-09-20T04:35:59.496Z,97897.41
2022-09-20T04:38:28.206Z,97903.16
2022-09-20T04:41:20.552Z,97900.84
2022-09-20T04:44:12.006Z,97904.72
2022-09-20T04:47:13.335Z,97898.25
2022-09-20T04:50:16.795Z,97897.00
2022-09-20T04:53:09.085Z,97906.28
2022-09-20T04:55:52.825Z,97903.38
2022-09-20T04:58:49.573Z,97908.59
2022-09-20T05:02:03.348Z,97906.88
2022-09-20T05:05:09.159Z,97908.06
2022-09-20T05:08:05.980Z,97916.00
2022-09-20T05:11:06.539Z,97918.53
2022-09-20T05:13:47.469Z,97921.69
2022-09-20T05:16:23.148Z,97921.91
2022-09-20T05:19:26.878Z,97921.44
2022-09-20T05:22:32.601Z,97919.84
2022-09-20T05:25:35.172Z,97924.63
2022-09-20T05:28:09.156Z,97918.53
2022-09-20T05:30:44.716Z,97927.13
2022-09-20T05:33:21.395Z,97929.78
2022-09-20T05:36:03.237Z,97928.06
2022-09-20T05:38:42.153Z,97935.63
2022-09-20T05:41:18.903Z,97940.72
2022-09-20T05:43:55.992Z,97941.53
2022-09-20T05:46:35.766Z,97933.03
2022-09-20T05:49:13.161Z,97934.28
2022-09-20T05:52:00.937Z,97943.69
2022-09-20T05:55:07.737Z,97940.25
2022-09-20T05:57:56.400Z,97941.84
2022-09-20T06:00:29.073Z,97945.81
2022-09-20T06:03:10.374Z,97949.81
2022-09-20T06:05:48.041Z,97936.09
2022-09-20T06:08:43.202Z,97948.72
2022-09-20T06:11:48.494Z,97962.44
2022-09-20T06:14:27.526Z,97945.28
2022-09-20T06:17:03.058Z,97958.19
2022-09-20T06:19:40.241Z,97958.00
2022-09-20T06:22:17.089Z,97948.91
2022-09-20T06:24:51.096Z,97964.22
2022-09-20T06:27:22.678Z,97964.34
2022-09-20T06:29:55.790Z,97965.13
2022-09-20T06:32:23.612Z,97968.47
2022-09-20T06:34:52.860Z,97958.25
2022-09-20T06:37:52.763Z,97969.78
2022-09-20T06:40:50.920Z,97972.31
2022-09-20T06:43:19.477Z,97943.81
2022-09-20T06:45:48.054Z,97975.16
2022-09-20T06:48:16.192Z,97980.78
2022-09-20T06:50:45.281Z,97974.16
2022-09-20T06:53:18.639Z,97979.59
2022-09-20T06:55:48.685Z,97974.94
2022-09-20T06:58:16.717Z,97981.38
2022-09-20T07:00:44.538Z,97978.22
2022-09-20T07:03:13.553Z,97983.56
2022-09-20T07:05:41.836Z,97982.50
2022-09-20T07:08:09.797Z,97987.19
2022-09-20T07:10:38.343Z,97986.97
2022-09-20T07:13:07.705Z,97997.88
2022-09-20T07:15:35.593Z,97994.91
2022-09-20T07:18:03.550Z,98002.47
2022-09-20T07:20:31.605Z,97999.81
2022-09-20T07:22:59.416Z,98003.56
2022-09-20T07:25:27.528Z,98015.34
2022-09-20T07:27:56.230Z,98013.97
2022-09-20T07:30:25.888Z,98022.38
2022-09-20T07:32:53.956Z,98022.78
2022-09-20T07:35:22.325Z,98026.44
2022-09-20T07:37:50.065Z,98040.53
2022-09-20T07:40:20.224Z,98035.09
2022-09-20T07:42:48.261Z,98046.06
2022-09-20T07:45:16.050Z,98037.59
2022-09-20T07:47:46.728Z,98045.16
2022-09-20T07:50:14.746Z,98049.56
2022-09-20T07:52:42.632Z,98047.53
2022-09-20T07:55:10.823Z,98048.22
2022-09-20T07:57:39.590Z,98061.34
2022-09-20T08:00:10.032Z,98051.41
2022-09-20T08:02:38.066Z,98053.06
2022-09-20T08:05:08.067Z,98060.94
2022-09-20T08:07:35.764Z,98058.19
2022-09-20T08:10:03.786Z,98068.38
2022-09-20T08:15:20.741Z,98057.06
2022-09-20T08:17:49.293Z,98060.25
2022-09-20T08:20:18.430Z,98061.97
2022-09-20T08:23:00.950Z,98058.91
2022-09-20T08:25:34.794Z,98066.19
2022-09-20T08:28:03.518Z,98064.59
2022-09-20T08:30:31.368Z,98070.53
2022-09-20T08:32:59.561Z,98064.00
2022-09-20T08:35:29.739Z,98062.63
2022-09-20T08:39:57.167Z,98074.66
2022-09-20T08:40:46.170Z,98072.28
2022-09-20T08:43:14.446Z,98069.44
2022-09-20T08:45:42.663Z,98074.78
2022-09-20T08:48:17.294Z,98080.00
2022-09-20T08:50:46.515Z,98073.75
2022-09-20T08:53:20.971Z,98084.06
2022-09-20T08:55:49.685Z,98076.13
2022-09-20T08:58:19.155Z,98080.56
2022-09-20T09:00:48.026Z,98074.72
2022-09-20T09:03:17.912Z,98079.63
2022-09-20T09:05:49.161Z,98080.81
2022-09-20T09:08:19.744Z,98080.03
2022-09-20T09:10:54.717Z,98082.94
2022-09-20T09:13:27.868Z,98075.63
2022-09-20T09:16:00.118Z,98079.63
2022-09-20T09:18:40.106Z,98077.22
2022-09-20T09:21:12.150Z,98067.13
2022-09-20T09:23:42.509Z,98077.47
2022-09-20T09:26:20.420Z,98073.09
2022-09-20T09:28:48.602Z,98068.59
2022-09-20T09:31:25.726Z,98069.28
2022-09-20T09:33:53.693Z,98073.53
2022-09-20T09:36:25.340Z,98068.78
2022-09-20T09:39:17.555Z,98072.19
2022-09-20T09:41:46.362Z,98063.19
2022-09-20T09:44:23.660Z,98066.72
2022-09-20T09:46:53.453Z,98066.00
2022-09-20T09:49:23.492Z,98058.53
2022-09-20T09:52:08.057Z,98057.16
2022-09-20T09:54:38.149Z,98051.50
2022-09-20T09:57:35.412Z,98051.28
2022-09-20T10:00:18.009Z,98048.31
2022-09-20T10:03:26.553Z,98037.59
2022-09-20T10:06:08.539Z,98052.56
2022-09-20T10:08:46.114Z,98056.81
2022-09-20T10:11:36.310Z,98059.75
2022-09-20T10:14:20.324Z,98066.44
2022-09-20T10:17:05.933Z,98060.56
2022-09-20T10:19:47.597Z,98058.53
2022-09-20T10:22:21.517Z,98059.31
2022-09-20T10:25:04.287Z,98051.75
2022-09-20T10:27:48.308Z,98064.22
2022-09-20T10:30:20.193Z,98057.66
2022-09-20T10:33:00.419Z,98054.69
2022-09-20T10:35:36.975Z,98060.69
2022-09-20T10:38:26.198Z,98052.72
2022-09-20T10:41:39.025Z,98056.00
2022-09-20T10:44:13.802Z,98061.09
2022-09-20T10:46:52.618Z,98056.88
2022-09-20T10:49:29.041Z,98052.56
2022-09-20T10:52:23.813Z,98050.47
2022-09-20T10:55:18.734Z,98054.59
2022-09-20T10:58:27.111Z,98051.34
2022-09-20T11:01:02.280Z,98056.59
2022-09-20T11:03:47.632Z,98054.53
2022-09-20T11:06:21.250Z,98054.06
2022-09-20T11:08:56.467Z,98044.69
2022-09-20T11:11:31.051Z,98055.72
2022-09-20T11:14:05.976Z,98053.69
2022-09-20T11:16:40.694Z,98051.56
2022-09-20T11:19:19.945Z,98056.31
2022-09-20T11:21:50.728Z,98062.25
2022-09-20T11:24:31.695Z,98055.47
2022-09-20T11:27:05.349Z,98061.69
2022-09-20T11:29:38.950Z,98057.41
2022-09-20T11:32:14.004Z,98056.50
2022-09-20T11:34:50.992Z,98063.03
2022-09-20T11:37:20.372Z,98068.66
2022-09-20T11:39:51.619Z,98068.66
2022-09-20T11:42:23.083Z,98065.91
2022-09-20T11:44:52.957Z,98063.25
2022-09-20T11:47:50.064Z,98059.09
2022-09-20T11:50:49.009Z,98060.56
2022-09-20T11:53:32.136Z,98063.91
2022-09-20T11:56:08.001Z,98058.75
2022-09-20T11:58:48.200Z,98063.47
2022-09-20T12:01:28.644Z,98066.44
2022-09-20T12:04:20.693Z,98072.53
2022-09-20T12:06:48.754Z,98062.22
2022-09-20T12:09:26.746Z,98045.16
2022-09-20T12:11:55.928Z,98064.84
2022-09-20T12:14:26.037Z,98064.50
2022-09-20T12:16:56.942Z,98066.78
2022-09-20T12:19:39.407Z,98059.88
2022-09-20T12:22:28.030Z,98057.56
2022-09-20T12:25:35.521Z,98050.63
2022-09-20T12:28:03.467Z,98055.19
2022-09-20T12:30:33.881Z,98053.53
2022-09-20T12:33:04.040Z,98057.38
2022-09-20T12:36:16.485Z,98058.81
2022-09-20T12:38:50.427Z,98056.44
2022-09-20T12:41:28.369Z,98051.28
2022-09-20T12:44:21.952Z,98042.22
2022-09-20T12:46:56.265Z,98053.56
2022-09-20T12:49:50.451Z,98057.91
2022-09-20T12:52:41.768Z,98056.31
2022-09-20T12:55:12.092Z,98061.94
2022-09-20T12:57:40.853Z,98051.44
2022-09-20T13:00:32.036Z,98048.38
2022-09-20T13:03:01.861Z,98066.22
2022-09-20T13:05:40.638Z,98059.59
2022-09-20T13:08:16.993Z,98064.56
2022-09-20T13:10:50.042Z,98069.59
2022-09-20T13:13:30.042Z,98074.75
2022-09-20T13:15:59.142Z,98073.16
2022-09-20T13:18:29.414Z,98078.13
2022-09-20T13:21:06.530Z,98062.88
2022-09-20T13:23:47.173Z,98084.72
2022-09-20T13:26:16.836Z,98078.09
2022-09-20T13:28:51.462Z,98076.75
2022-09-20T13:31:27.911Z,98089.25
2022-09-20T13:33:56.625Z,98081.53
2022-09-20T13:36:31.753Z,98076.75
2022-09-20T13:39:00.118Z,98077.47
2022-09-20T13:41:32.603Z,98077.00
2022-09-20T13:44:01.313Z,98083.00
2022-09-20T13:46:31.837Z,98084.88
2022-09-20T13:49:13.700Z,98070.84
2022-09-20T13:51:43.021Z,98078.97
2022-09-20T13:54:28.540Z,98080.81
2022-09-20T13:56:59.170Z,98070.59
2022-09-20T13:59:34.101Z,98075.06
2022-09-20T14:02:04.239Z,98074.31
2022-09-20T14:04:32.593Z,98072.22
2022-09-20T14:07:02.956Z,98066.13
2022-09-20T14:09:34.892Z,98069.13
2022-09-20T14:12:05.588Z,98074.94
2022-09-20T14:14:35.718Z,98077.28
2022-09-20T14:17:07.364Z,98079.59
2022-09-20T14:19:41.869Z,98082.16
2022-09-20T14:22:18.564Z,98084.56
2022-09-20T14:24:59.444Z,98085.16
2022-09-20T14:27:27.427Z,98090.31
2022-09-20T14:29:56.257Z,98081.31
2022-09-20T14:32:35.244Z,98085.63
2022-09-20T14:35:07.467Z,98089.91
2022-09-20T14:37:44.661Z,98068.41
2022-09-20T14:40:21.412Z,98062.63
2022-09-20T14:42:52.619Z,98084.28
2022-09-20T14:45:27.042Z,98082.78
2022-09-20T14:48:06.722Z,98083.38
2022-09-20T14:50:40.681Z,98087.47
2022-09-20T14:53:26.624Z,98091.53
2022-09-20T14:56:10.308Z,98083.56
2022-09-20T14:59:07.590Z,98097.13
2022-09-20T15:01:38.945Z,98095.47
2022-09-20T15:04:09.744Z,98096.88
2022-09-20T15:06:40.023Z,98107.78
2022-09-20T15:09:12.963Z,98108.91
2022-09-20T15:11:41.674Z,98107.09
2022-09-20T15:14:09.538Z,98106.38
2022-09-20T15:16:37.511Z,98106.63
2022-09-20T15:19:07.967Z,98110.47
2022-09-20T15:21:36.274Z,98115.81
2022-09-20T15:24:03.980Z,98113.22
2022-09-20T15:26:34.119Z,98113.47
2022-09-20T15:29:01.821Z,98113.19
2022-09-20T15:31:29.679Z,98116.13
2022-09-20T15:33:57.908Z,98114.94
2022-09-20T15:36:31.718Z,98116.38
2022-09-20T15:39:00.280Z,98117.50
2022-09-20T15:41:31.246Z,98123.19
2022-09-20T15:44:01.512Z,98129.22
2022-09-20T15:46:29.789Z,98124.38
2022-09-20T15:49:00.534Z,98125.72
2022-09-20T15:51:30.356Z,98122.19
2022-09-20T15:54:00.109Z,98122.28
2022-09-20T15:56:30.452Z,98125.88
2022-09-20T15:59:01.952Z,98123.81
2022-09-20T16:01:32.937Z,98119.69
2022-09-20T16:04:05.387Z,98126.72
2022-09-20T16:06:34.041Z,98120.75
2022-09-20T16:09:01.792Z,98120.50
2022-09-20T16:11:29.858Z,98124.47
2022-09-20T16:14:01.079Z,98124.47
2022-09-20T16:16:35.026Z,98137.66
2022-09-20T16:19:20.583Z,98144.50
2022-09-20T16:21:55.035Z,98140.44
2022-09-20T16:24:26.929Z,98129.00
2022-09-20T16:26:55.187Z,98148.75
2022-09-20T16:29:25.653Z,98148.25
2022-09-20T16:31:55.302Z,98145.72
2022-09-20T16:34:30.539Z,98142.53
2022-09-20T16:37:01.748Z,98161.63
2022-09-20T16:39:31.405Z,98170.94
2022-09-20T16:42:05.018Z,98164.56
2022-09-20T16:44:36.093Z,98172.97
2022-09-20T16:47:07.914Z,98173.66
2022-09-20T16:49:36.392Z,98177.94
2022-09-20T16:52:05.565Z,98178.19
2022-09-20T16:54:34.082Z,98178.19
2022-09-20T16:57:02.109Z,98191.59
2022-09-20T16:59:29.872Z,98192.03
2022-09-20T17:01:59.275Z,98191.91
2022-09-20T17:04:27.252Z,98206.72
2022-09-20T17:06:55.606Z,98214.00
2022-09-20T17:09:23.725Z,98215.22
2022-09-20T17:11:51.931Z,98220.75
2022-09-20T17:14:21.853Z,98219.78
2022-09-20T17:16:50.321Z,98225.19
2022-09-20T17:19:21.125Z,98223.63
2022-09-20T17:21:51.676Z,98229.28
2022-09-20T17:24:21.221Z,98232.16
2022-09-20T17:26:50.662Z,98225.13
2022-09-20T17:29:19.935Z,98210.88
2022-09-20T17:31:54.585Z,98229.25
2022-09-20T17:34:25.626Z,98227.44
2022-09-20T17:36:54.885Z,98233.97
2022-09-20T17:39:22.605Z,98237.41
2022-09-20T17:41:51.589Z,98233.97
2022-09-20T17:44:20.056Z,98252.59
2022-09-20T17:46:50.564Z,98248.16
2022-09-20T17:49:20.311Z,98246.44
2022-09-20T17:51:51.150Z,98247.88
2022-09-20T17:54:20.154Z,98248.88
2022-09-20T17:56:50.242Z,98240.28
2022-09-20T17:59:20.651Z,98246.16
2022-09-20T18:01:50.581Z,98246.84
2022-09-20T18:04:20.780Z,98245.22
2022-09-20T18:06:52.165Z,98244.19
2022-09-20T18:09:21.601Z,98232.47
2022-09-20T18:11:51.106Z,98245.91
2022-09-20T18:14:21.003Z,98250.94
2022-09-20T18:16:48.800Z,98254.38
2022-09-20T18:19:16.867Z,98261.97
2022-09-20T18:21:44.854Z,98257.16
2022-09-20T18:24:14.061Z,98256.78
2022-09-20T18:26:42.365Z,98263.81
2022-09-20T18:29:12.178Z,98267.00
2022-09-20T18:31:43.162Z,98266.66
2022-09-20T18:34:13.476Z,98270.19
2022-09-20T18:36:41.233Z,98271.13
2022-09-20T18:39:09.331Z,98271.13
2022-09-20T18:41:39.872Z,98278.81
2022-09-20T18:44:08.593Z,98272.44
2022-09-20T18:46:38.171Z,98283.31
2022-09-20T18:49:09.234Z,98294.34
2022-09-20T18:51:40.190Z,98293.56
2022-09-20T18:54:10.069Z,98293.59
2022-09-20T18:56:41.317Z,98289.44
2022-09-20T18:59:15.917Z,98283.84
2022-09-20T19:01:59.454Z,98295.03
2022-09-20T19:04:47.073Z,98288.47
2022-09-20T19:07:21.488Z,98297.50
2022-09-20T19:09:57.824Z,98300.53
2022-09-20T19:12:36.757Z,98302.94
2022-09-20T19:15:19.873Z,98308.38
2022-09-20T19:18:03.123Z,98305.97
2022-09-20T19:20:36.229Z,98310.34
2022-09-20T19:23:14.909Z,98312.31
2022-09-20T19:25:46.405Z,98315.00
2022-09-20T19:28:16.926Z,98311.75
2022-09-20T19:30:48.100Z,98326.03
2022-09-20T19:33:18.372Z,98318.59
2022-09-20T19:35:50.524Z,98316.44
2022-09-20T19:38:35.235Z,98327.97
2022-09-20T19:41:13.990Z,98321.41
2022-09-20T19:44:05.237Z,98319.81
2022-09-20T19:46:46.836Z,98328.16
2022-09-20T19:49:16.906Z,98322.38
2022-09-20T19:51:45.748Z,98324.31
2022-09-20T19:54:15.823Z,98327.69
2022-09-20T19:56:51.097Z,98328.81
2022-09-20T19:59:21.318Z,98301.19
2022-09-20T20:01:49.794Z,98328.97
2022-09-20T20:04:18.299Z,98328.34
2022-09-20T20:06:55.704Z,98332.81
2022-09-20T20:09:32.133Z,98328.38
2022-09-20T20:12:06.049Z,98319.09
2022-09-20T20:14:45.714Z,98335.72
2022-09-20T20:17:26.222Z,98342.38
2022-09-20T20:20:05.337Z,98335.72
2022-09-20T20:22:47.179Z,98342.28
2022-09-20T20:25:26.686Z,98345.50
2022-09-20T20:27:54.833Z,98341.34
2022-09-20T20:30:24.289Z,98346.59
2022-09-20T20:32:57.901Z,98345.97
2022-09-20T20:35:26.692Z,98341.84
2022-09-20T20:37:54.510Z,98344.56
2022-09-20T20:40:22.477Z,98341.84
2022-09-20T20:43:02.153Z,98345.38
2022-09-20T20:45:31.475Z,98345.56
2022-09-20T20:48:00.019Z,98336.78
2022-09-20T20:50:29.387Z,98349.09
2022-09-20T20:52:57.540Z,98346.03
2022-09-20T20:55:26.071Z,98339.81
2022-09-20T20:57:57.744Z,98346.38
2022-09-20T21:00:27.429Z,98341.06
2022-09-20T21:02:59.877Z,98339.00
2022-09-20T21:05:28.549Z,98340.75
2022-09-20T21:07:57.893Z,98342.00
2022-09-20T21:10:25.970Z,98344.41
2022-09-20T21:12:55.442Z,98341.22
2022-09-20T21:15:23.505Z,98335.94
2022-09-20T21:17:52.864Z,98338.81
2022-09-20T21:20:22.443Z,98345.09
2022-09-20T21:22:50.673Z,98318.78
2022-09-20T21:25:18.824Z,98346.69
2022-09-20T21:27:46.540Z,98344.78
2022-09-20T21:30:15.196Z,98336.94
2022-09-20T21:32:43.135Z,98338.53
2022-09-20T21:35:11.414Z,98347.00
2022-09-20T21:37:41.195Z,98343.97
2022-09-20T21:40:10.489Z,98348.09
2022-09-20T21:42:38.196Z,98344.78
2022-09-20T21:45:11.002Z,98352.94
2022-09-20T21:47:38.793Z,98348.78
2022-09-20T21:50:07.473Z,98351.63
2022-09-20T21:52:35.587Z,98355.00
2022-09-20T21:55:05.706Z,98352.31
2022-09-20T21:57:33.539Z,98325.78
2022-09-20T22:00:02.005Z,98364.78
2022-09-20T22:02:30.602Z,98359.50
2022-09-20T22:04:58.408Z,98359.97
2022-09-20T22:07:26.355Z,98353.41
2022-09-20T22:09:54.230Z,98352.78
2022-09-20T22:12:24.171Z,98363.97
2022-09-20T22:14:52.162Z,98365.06
2022-09-20T22:17:20.069Z,98360.28
2022-09-20T22:19:47.784Z,98367.00
2022-09-20T22:22:15.929Z,98367.13
2022-09-20T22:24:43.710Z,98365.38
2022-09-20T22:27:11.452Z,98367.78
2022-09-20T22:29:40.903Z,98362.38
2022-09-20T22:32:08.932Z,98362.03
2022-09-20T22:34:36.786Z,98360.09
2022-09-20T22:37:04.818Z,98362.00
2022-09-20T22:39:32.939Z,98361.88
2022-09-20T22:42:00.703Z,98371.78
2022-09-20T22:44:28.885Z,98366.34
2022-09-20T22:46:58.195Z,98368.41
2022-09-20T22:49:26.015Z,98366.81
2022-09-20T22:51:53.904Z,98369.22
2022-09-20T22:54:21.934Z,98366.34
2022-09-20T22:56:49.673Z,98367.47
2022-09-20T22:59:17.557Z,98368.59
2022-09-20T23:01:47.120Z,98379.44
2022-09-20T23:04:18.618Z,98367.13
2022-09-20T23:06:49.140Z,98363.16
2022-09-20T23:09:18.872Z,98364.94
2022-09-20T23:11:47.512Z,98349.28
2022-09-20T23:14:17.005Z,98364.94
2022-09-20T23:16:45.618Z,98363.97
2022-09-20T23:19:14.320Z,98365.25
2022-09-20T23:21:44.421Z,98370.66
2022-09-20T23:24:15.096Z,98374.03
2022-09-20T23:26:44.305Z,98377.69
2022-09-20T23:29:14.086Z,98374.81
2022-09-20T23:31:46.165Z,98373.06
2022-09-20T23:34:16.659Z,98372.44
2022-09-20T23:36:46.567Z,98375.00
2022-09-20T23:39:14.833Z,98381.38
2022-09-20T23:41:48.341Z,98378.03
2022-09-20T23:44:18.809Z,98367.34
2022-09-20T23:46:46.840Z,98376.28
2022-09-20T23:49:14.580Z,98372.44
2022-09-20T23:51:42.297Z,98375.16
2022-09-20T23:54:11.708Z,98376.09
2022-09-20T23:56:40.135Z,98377.06
2022-09-20T23:59:07.854Z,98382.03
